LGX87G LIMF-LIMF
Flight info
| Callsign | LGX87G |
|---|---|
| Flight time | 0h 17m |
| Altitude | 19000 |
| Route | LAGEN1W/36 LAGEN L50 IXITO |
| Aircraft | B752/M-SDE3FGHIM3RWXY/LB1 |
Departure
| Time | 2026-05-06 21:09 |
|---|---|
| Airport | Turin Airport (LIMF) |
Arrival
| Time | 2026-05-06 21:26 |
|---|---|
| Airport | Turin Airport (LIMF) |
| Time | Latitude | Longitude | Altitude | Speed | Heading |
|---|---|---|---|---|---|
| 2026-05-06 21:09 | 45.00784 | 7.63797 | 4004 ft | 199 kts | 1° |
| 2026-05-06 21:09 | 45.02177 | 7.63875 | 4011 ft | 199 kts | 1° |
| 2026-05-06 21:09 | 45.03585 | 7.63956 | 3916 ft | 205 kts | 1° |
| 2026-05-06 21:09 | 45.04985 | 7.64039 | 3654 ft | 201 kts | 1° |
| 2026-05-06 21:10 | 45.06364 | 7.64123 | 3387 ft | 191 kts | 1° |
| 2026-05-06 21:10 | 45.07658 | 7.64202 | 3137 ft | 184 kts | 2° |
| 2026-05-06 21:10 | 45.08895 | 7.64277 | 2905 ft | 169 kts | 2° |
| 2026-05-06 21:10 | 45.09991 | 7.64344 | 2728 ft | 146 kts | 2° |
| 2026-05-06 21:11 | 45.10957 | 7.64403 | 2507 ft | 130 kts | 2° |
| 2026-05-06 21:11 | 45.11818 | 7.64456 | 2314 ft | 117 kts | 3° |
| 2026-05-06 21:11 | 45.12597 | 7.64503 | 2153 ft | 111 kts | 3° |
| 2026-05-06 21:11 | 45.13388 | 7.64552 | 2036 ft | 115 kts | 4° |
| 2026-05-06 21:12 | 45.14193 | 7.64603 | 1885 ft | 115 kts | 4° |
| 2026-05-06 21:12 | 45.14990 | 7.64692 | 1687 ft | 117 kts | 6° |
| 2026-05-06 21:12 | 45.15818 | 7.64727 | 1555 ft | 119 kts | 2° |
| 2026-05-06 21:12 | 45.16631 | 7.64752 | 1404 ft | 117 kts | 2° |
| 2026-05-06 21:13 | 45.17442 | 7.64791 | 1250 ft | 116 kts | 3° |
| 2026-05-06 21:13 | 45.18250 | 7.64844 | 1117 ft | 117 kts | 3° |
| 2026-05-06 21:13 | 45.19069 | 7.64897 | 992 ft | 116 kts | 3° |
| 2026-05-06 21:13 | 45.19937 | 7.64938 | 1482 ft | 142 kts | 3° |
| 2026-05-06 21:14 | 45.20913 | 7.65000 | 2767 ft | 157 kts | 1° |
| 2026-05-06 21:14 | 45.21925 | 7.65041 | 4101 ft | 144 kts | 360° |
| 2026-05-06 21:14 | 45.23151 | 7.65015 | 4155 ft | 206 kts | 360° |
| 2026-05-06 21:14 | 45.24611 | 7.65336 | 4014 ft | 219 kts | 24° |
| 2026-05-06 21:15 | 45.25709 | 7.66868 | 4996 ft | 233 kts | 61° |
| 2026-05-06 21:15 | 45.26175 | 7.69072 | 5045 ft | 246 kts | 88° |
| 2026-05-06 21:15 | 45.26105 | 7.71551 | 5013 ft | 251 kts | 94° |
| 2026-05-06 21:15 | 45.25837 | 7.73970 | 5016 ft | 251 kts | 111° |
| 2026-05-06 21:16 | 45.24799 | 7.76013 | 5047 ft | 267 kts | 142° |
| 2026-05-06 21:16 | 45.23132 | 7.77162 | 5021 ft | 272 kts | 169° |
| 2026-05-06 21:16 | 45.21242 | 7.77275 | 5002 ft | 271 kts | 183° |
| 2026-05-06 21:16 | 45.19361 | 7.77158 | 4995 ft | 270 kts | 183° |
| 2026-05-06 21:17 | 45.17492 | 7.77051 | 4996 ft | 270 kts | 183° |
| 2026-05-06 21:17 | 45.15608 | 7.76940 | 4993 ft | 271 kts | 183° |
| 2026-05-06 21:17 | 45.13720 | 7.76828 | 4989 ft | 263 kts | 183° |
| 2026-05-06 21:17 | 45.11951 | 7.76733 | 4984 ft | 246 kts | 184° |
| 2026-05-06 21:18 | 45.10299 | 7.76652 | 4980 ft | 232 kts | 183° |
| 2026-05-06 21:18 | 45.08707 | 7.76570 | 4762 ft | 228 kts | 183° |
| 2026-05-06 21:18 | 45.07139 | 7.76481 | 4551 ft | 222 kts | 184° |
| 2026-05-06 21:18 | 45.05593 | 7.76394 | 4300 ft | 219 kts | 183° |
| 2026-05-06 21:19 | 45.04094 | 7.76304 | 4056 ft | 216 kts | 183° |
| 2026-05-06 21:19 | 45.02615 | 7.76212 | 3983 ft | 204 kts | 184° |
| 2026-05-06 21:19 | 45.01247 | 7.76129 | 3974 ft | 189 kts | 183° |
| 2026-05-06 21:19 | 44.99952 | 7.76057 | 4001 ft | 190 kts | 184° |
| 2026-05-06 21:20 | 44.98665 | 7.75578 | 4010 ft | 192 kts | 216° |
| 2026-05-06 21:20 | 44.97885 | 7.74135 | 4008 ft | 189 kts | 255° |
| 2026-05-06 21:20 | 44.97798 | 7.72292 | 3985 ft | 189 kts | 273° |
| 2026-05-06 21:20 | 44.97862 | 7.70455 | 3994 ft | 188 kts | 273° |
| 2026-05-06 21:21 | 44.97921 | 7.68628 | 4020 ft | 178 kts | 274° |
| 2026-05-06 21:21 | 44.98170 | 7.66974 | 3972 ft | 174 kts | 301° |
| 2026-05-06 21:21 | 44.99091 | 7.65877 | 4019 ft | 177 kts | 332° |
| 2026-05-06 21:21 | 45.00215 | 7.65102 | 4007 ft | 179 kts | 334° |
| 2026-05-06 21:22 | 45.01325 | 7.64327 | 3999 ft | 176 kts | 333° |
| 2026-05-06 21:22 | 45.02505 | 7.63912 | 4011 ft | 178 kts | 359° |
| 2026-05-06 21:22 | 45.03765 | 7.63989 | 3886 ft | 184 kts | 2° |
| 2026-05-06 21:22 | 45.05032 | 7.64055 | 3649 ft | 179 kts | 1° |
| 2026-05-06 21:23 | 45.06264 | 7.64123 | 3411 ft | 175 kts | 2° |
| 2026-05-06 21:23 | 45.07457 | 7.64192 | 3187 ft | 172 kts | 2° |
| 2026-05-06 21:23 | 45.08650 | 7.64263 | 2960 ft | 169 kts | 2° |
| 2026-05-06 21:23 | 45.09810 | 7.64333 | 2737 ft | 167 kts | 2° |
| 2026-05-06 21:24 | 45.10945 | 7.64402 | 2511 ft | 158 kts | 2° |
| 2026-05-06 21:24 | 45.12007 | 7.64467 | 2307 ft | 143 kts | 3° |
| 2026-05-06 21:24 | 45.12945 | 7.64524 | 2131 ft | 130 kts | 3° |
| 2026-05-06 21:24 | 45.13827 | 7.64578 | 1950 ft | 124 kts | 3° |
| 2026-05-06 21:25 | 45.14687 | 7.64629 | 1795 ft | 125 kts | 4° |
| 2026-05-06 21:25 | 45.15550 | 7.64699 | 1582 ft | 123 kts | 5° |
| 2026-05-06 21:25 | 45.16384 | 7.64754 | 1440 ft | 120 kts | 2° |
| 2026-05-06 21:25 | 45.17222 | 7.64791 | 1306 ft | 122 kts | 2° |
| 2026-05-06 21:26 | 45.18089 | 7.64843 | 1154 ft | 125 kts | 3° |
| 2026-05-06 21:26 | 45.18966 | 7.64893 | 1008 ft | 125 kts | 3° |
| 2026-05-06 21:26 | 45.19774 | 7.64943 | 967 ft | 101 kts | 3° |
| 2026-05-06 21:26 | 45.20242 | 7.64974 | 979 ft | 44 kts | 2° |
| 2026-05-06 21:27 | 45.20484 | 7.64990 | 986 ft | 27 kts | 3° |
| 2026-05-06 21:27 | 45.20679 | 7.65003 | 991 ft | 28 kts | 3° |
| 2026-05-06 21:27 | 45.20845 | 7.64961 | 994 ft | 21 kts | 315° |
| 2026-05-06 21:27 | 45.20856 | 7.64791 | 994 ft | 19 kts | 231° |
| 2026-05-06 21:28 | 45.20718 | 7.64736 | 992 ft | 24 kts | 184° |
| 2026-05-06 21:28 | 45.20541 | 7.64721 | 988 ft | 22 kts | 181° |
| 2026-05-06 21:28 | 45.20491 | 7.64696 | 987 ft | 7 kts | 245° |
| 2026-05-06 21:28 | 45.20488 | 7.64616 | 989 ft | 9 kts | 272° |
| 2026-05-06 21:29 | 45.20489 | 7.64582 | 990 ft | 0 kts | 271° |